Time;durP1;ratioP1;P1;durP2;ratioP2;P2;SDS_P1;SDS_P2;PMS_P1;PMS_P2;Temp;Humidity;BMP_temperature;BMP_pressure;BME280_temperature;BME280_humidity;BME280_pressure;Samples;Min_cycle;Max_cycle;Signal;HPM_P1;HPM_P2
2022/08/17 00:00:15;;;;;;;20.50;18.60;;;21.20;99.90;;;;;;4877792;29;20242;-59
2022/08/17 00:03:09;;;;;;;22.57;20.40;;;21.10;99.90;;;;;;4882286;29;20707;-59
2022/08/17 00:05:43;;;;;;;22.17;19.97;;;21.10;99.90;;;;;;4882635;29;20314;-59
2022/08/17 00:08:13;;;;;;;25.73;21.10;;;21.00;99.90;;;;;;4885607;29;20232;-59
2022/08/17 00:10:43;;;;;;;23.90;21.57;;;21.00;99.90;;;;;;4874458;29;20604;-59
2022/08/17 00:13:13;;;;;;;27.90;25.00;;;21.00;99.90;;;;;;4881917;29;20746;-59
2022/08/17 00:15:42;;;;;;;25.67;23.17;;;21.00;99.90;;;;;;4881303;29;20312;-59
2022/08/17 00:18:11;;;;;;;26.17;23.70;;;21.00;99.90;;;;;;4881941;29;20272;-59
2022/08/17 00:21:03;;;;;;;29.00;26.10;;;21.00;99.90;;;;;;4873770;29;20233;-59
2022/08/17 00:23:37;;;;;;;28.57;25.77;;;21.00;99.90;;;;;;4881887;29;20777;-59
2022/08/17 00:26:12;;;;;;;28.50;25.57;;;20.90;99.90;;;;;;4871394;29;20237;-59
2022/08/17 00:28:41;;;;;;;29.97;26.97;;;20.90;99.90;;;;;;4877480;29;20286;-59
2022/08/17 00:31:11;;;;;;;27.47;24.70;;;20.90;99.90;;;;;;4881423;29;20713;-59
2022/08/17 00:33:41;;;;;;;27.20;24.47;;;20.90;99.90;;;;;;4881269;29;20329;-59
2022/08/17 00:36:11;;;;;;;26.13;23.53;;;20.80;99.90;;;;;;4881908;29;20328;-58
2022/08/17 00:38:39;;;;;;;26.37;23.70;;;20.80;99.90;;;;;;4881136;29;20290;-59
2022/08/17 00:41:10;;;;;;;26.97;24.37;;;20.80;99.90;;;;;;4881446;29;20222;-59
2022/08/17 00:43:42;;;;;;;27.10;24.47;;;20.80;99.90;;;;;;4881096;29;20261;-59
2022/08/17 00:46:13;;;;;;;27.60;24.87;;;20.80;99.90;;;;;;4874148;29;20761;-59
2022/08/17 00:48:41;;;;;;;23.17;20.87;;;20.70;99.90;;;;;;4881130;29;20246;-59
2022/08/17 00:51:18;;;;;;;23.70;21.40;;;20.70;99.90;;;;;;4881653;29;20332;-59
2022/08/17 00:53:52;;;;;;;23.80;21.50;;;20.70;99.90;;;;;;4881325;29;20283;-59
2022/08/17 00:56:28;;;;;;;21.93;19.93;;;20.70;99.90;;;;;;4881022;29;20308;-59
2022/08/17 00:58:56;;;;;;;20.57;18.67;;;20.60;99.90;;;;;;4881119;29;20237;-59
2022/08/17 01:01:26;;;;;;;22.47;20.37;;;20.60;99.90;;;;;;4880545;29;20269;-57
2022/08/17 01:03:55;;;;;;;23.90;21.67;;;20.60;99.90;;;;;;4863741;29;20230;-59
2022/08/17 01:06:29;;;;;;;24.40;22.17;;;20.60;99.90;;;;;;4880780;29;20316;-59
2022/08/17 01:08:59;;;;;;;25.07;22.77;;;20.50;99.90;;;;;;4880764;29;20238;-59
2022/08/17 01:11:29;;;;;;;25.57;23.27;;;20.50;99.90;;;;;;4880703;29;20737;-59
2022/08/17 01:13:57;;;;;;;25.60;23.30;;;20.50;99.90;;;;;;4881506;29;20722;-59
2022/08/17 01:16:28;;;;;;;27.37;24.67;;;20.40;99.90;;;;;;4880429;29;20234;-59
2022/08/17 01:19:00;;;;;;;24.30;22.10;;;20.40;99.90;;;;;;4880789;29;20242;-59
2022/08/17 01:21:46;;;;;;;25.37;23.07;;;20.40;99.90;;;;;;4880992;29;20268;-59
2022/08/17 01:24:16;;;;;;;23.23;21.03;;;20.40;99.90;;;;;;4864040;29;20743;-58
2022/08/17 01:26:45;;;;;;;22.63;20.53;;;20.30;99.90;;;;;;4880474;29;20768;-58
2022/08/17 01:29:13;;;;;;;23.00;20.93;;;20.30;99.90;;;;;;4880333;29;20238;-59
2022/08/17 01:31:46;;;;;;;24.03;21.73;;;20.30;99.90;;;;;;4879901;29;20749;-59
2022/08/17 01:34:16;;;;;;;23.53;21.27;;;20.20;99.90;;;;;;4878036;29;20234;-59
2022/08/17 01:36:48;;;;;;;22.53;20.47;;;20.20;99.90;;;;;;4880329;29;20761;-59
2022/08/17 01:39:23;;;;;;;22.67;20.57;;;20.10;99.90;;;;;;4860442;29;20238;-60
2022/08/17 01:41:56;;;;;;;23.93;21.63;;;20.10;99.90;;;;;;4882293;29;20240;-59
2022/08/17 01:44:27;;;;;;;26.67;23.97;;;20.10;99.90;;;;;;4881883;29;20602;-59
2022/08/17 01:46:56;;;;;;;27.10;24.43;;;20.10;99.90;;;;;;4892726;29;20236;-59
2022/08/17 01:49:24;;;;;;;26.83;24.23;;;20.10;99.90;;;;;;4898665;29;20228;-59
2022/08/17 01:51:52;;;;;;;25.07;22.57;;;20.10;99.90;;;;;;4898786;29;20244;-59
2022/08/17 01:54:23;;;;;;;25.20;22.77;;;20.10;99.90;;;;;;4898897;29;20324;-59
2022/08/17 01:56:51;;;;;;;25.17;22.70;;;20.00;99.90;;;;;;4882797;29;20321;-59
2022/08/17 01:59:20;;;;;;;25.57;22.97;;;20.00;99.90;;;;;;4879635;29;20226;-59
2022/08/17 02:01:49;;;;;;;26.07;23.67;;;20.00;99.90;;;;;;4879475;29;20321;-59
2022/08/17 02:04:17;;;;;;;26.10;23.70;;;20.00;99.90;;;;;;4879790;29;20586;-60
2022/08/17 02:06:46;;;;;;;28.80;26.07;;;19.90;99.90;;;;;;4879692;29;20241;-59
2022/08/17 02:09:24;;;;;;;25.53;23.13;;;19.90;99.90;;;;;;4879679;29;20718;-59
2022/08/17 02:11:59;;;;;;;26.07;23.77;;;19.90;99.90;;;;;;4879441;29;20292;-59
2022/08/17 02:14:47;;;;;;;26.00;23.77;;;19.80;99.90;;;;;;4880919;29;20236;-59
2022/08/17 02:17:15;;;;;;;25.00;22.90;;;19.80;99.90;;;;;;4879600;29;20253;-59
2022/08/17 02:19:43;;;;;;;23.27;21.33;;;19.80;99.90;;;;;;4879757;29;20325;-59
2022/08/17 02:22:11;;;;;;;23.33;21.40;;;19.70;99.90;;;;;;4894147;29;20251;-59
2022/08/17 02:24:41;;;;;;;21.47;19.77;;;19.70;99.90;;;;;;4897999;29;20327;-59
2022/08/17 02:27:29;;;;;;;21.80;20.00;;;19.70;99.90;;;;;;4874063;29;20312;-59
2022/08/17 02:29:57;;;;;;;23.00;20.90;;;19.70;99.90;;;;;;4879549;29;20341;-59
2022/08/17 02:32:26;;;;;;;23.30;21.40;;;19.60;99.90;;;;;;4879003;29;20241;-60
2022/08/17 02:34:56;;;;;;;25.37;23.07;;;19.60;99.90;;;;;;4879589;29;20273;-59
2022/08/17 02:37:25;;;;;;;26.77;24.33;;;19.60;99.90;;;;;;4891543;29;20570;-60
2022/08/17 02:39:56;;;;;;;27.13;24.63;;;19.60;99.90;;;;;;4887161;29;20281;-59
2022/08/17 02:42:30;;;;;;;29.23;26.63;;;19.50;99.90;;;;;;4879173;29;20689;-59
2022/08/17 02:44:59;;;;;;;29.77;27.07;;;19.50;99.90;;;;;;4880229;29;20229;-59
2022/08/17 02:47:27;;;;;;;33.10;29.90;;;19.50;99.90;;;;;;4879369;29;20309;-59
2022/08/17 02:49:55;;;;;;;33.50;30.10;;;19.50;99.90;;;;;;4879122;29;20238;-58
2022/08/17 02:52:24;;;;;;;35.23;31.60;;;19.50;99.90;;;;;;4879393;29;20649;-58
2022/08/17 02:55:16;;;;;;;34.13;30.63;;;19.50;99.90;;;;;;4879038;29;20240;-58
2022/08/17 02:57:44;;;;;;;32.43;29.13;;;19.50;99.90;;;;;;4878634;29;20283;-59
2022/08/17 03:00:16;;;;;;;34.23;30.80;;;19.50;99.90;;;;;;4878419;29;20323;-58
2022/08/17 03:02:45;;;;;;;36.37;32.60;;;19.50;99.90;;;;;;4879076;29;20716;-58
2022/08/17 03:05:16;;;;;;;35.10;31.50;;;19.40;99.90;;;;;;4879052;29;20234;-59
2022/08/17 03:07:44;;;;;;;33.73;30.27;;;19.40;99.90;;;;;;4879563;29;20232;-58
2022/08/17 03:10:15;;;;;;;33.80;30.47;;;19.40;99.90;;;;;;4878501;29;20243;-58
2022/08/17 03:12:44;;;;;;;33.70;30.50;;;19.40;99.90;;;;;;4880408;29;20585;-59
2022/08/17 03:15:14;;;;;;;36.80;33.23;;;19.40;99.90;;;;;;4871470;29;20378;-59
2022/08/17 03:17:43;;;;;;;37.90;34.10;;;19.40;99.90;;;;;;4897010;29;20289;-59
2022/08/17 03:20:13;;;;;;;37.73;34.03;;;19.40;99.90;;;;;;4897522;29;20225;-59
2022/08/17 03:22:44;;;;;;;35.97;32.33;;;19.40;99.90;;;;;;4897017;29;20311;-59
2022/08/17 03:25:23;;;;;;;34.53;31.13;;;19.40;99.90;;;;;;4894086;29;20237;-59
2022/08/17 03:27:52;;;;;;;35.30;32.00;;;19.40;99.90;;;;;;4878076;29;20233;-58
2022/08/17 03:30:21;;;;;;;37.90;34.20;;;19.40;99.90;;;;;;4878385;29;20237;-59
2022/08/17 03:32:51;;;;;;;36.13;32.63;;;19.30;99.90;;;;;;4878745;29;20241;-59
2022/08/17 03:35:23;;;;;;;32.10;29.20;;;19.30;99.90;;;;;;4879051;29;20271;-59
2022/08/17 03:37:51;;;;;;;32.33;29.33;;;19.30;99.90;;;;;;4882500;29;20263;-59
2022/08/17 03:40:30;;;;;;;32.93;29.83;;;19.30;99.90;;;;;;4865337;29;20229;-58
2022/08/17 03:43:20;;;;;;;33.80;30.50;;;19.30;99.90;;;;;;4884076;29;20237;-59
2022/08/17 03:57:14;;;;;;;38.87;35.17;;;19.30;99.90;;;;;;4881615;29;20240;-59
2022/08/17 03:59:43;;;;;;;34.87;31.73;;;19.30;99.90;;;;;;4882051;29;20749;-59
2022/08/17 04:02:16;;;;;;;38.60;34.83;;;19.30;99.90;;;;;;4892140;29;20242;-59
2022/08/17 04:04:44;;;;;;;35.87;32.53;;;19.30;99.90;;;;;;4900635;29;20235;-58
2022/08/17 04:07:13;;;;;;;38.00;34.13;;;19.30;99.90;;;;;;4900703;29;20241;-59
2022/08/17 04:09:41;;;;;;;35.30;31.87;;;19.30;99.90;;;;;;4889022;29;20306;-58
2022/08/17 04:12:09;;;;;;;39.43;35.70;;;19.30;99.90;;;;;;4881934;29;20630;-59
2022/08/17 04:14:39;;;;;;;40.47;36.53;;;19.30;99.90;;;;;;4882936;29;20233;-59
2022/08/17 04:17:23;;;;;;;40.27;36.27;;;19.30;99.90;;;;;;4882631;29;20610;-59
2022/08/17 04:19:51;;;;;;;36.40;33.00;;;19.30;99.90;;;;;;4881776;29;20245;-59
2022/08/17 04:22:20;;;;;;;36.50;33.10;;;19.30;99.90;;;;;;4882462;29;20228;-59
2022/08/17 04:25:04;;;;;;;34.43;31.23;;;19.20;99.90;;;;;;4880950;29;20237;-59
2022/08/17 04:27:32;;;;;;;36.47;32.97;;;19.30;99.90;;;;;;4881547;29;20250;-59
2022/08/17 04:30:02;;;;;;;37.67;34.23;;;19.30;99.90;;;;;;4881445;29;20312;-59
2022/08/17 04:32:30;;;;;;;36.53;33.13;;;19.30;99.90;;;;;;4875864;29;20292;-58
2022/08/17 04:35:20;;;;;;;34.53;31.23;;;19.30;99.90;;;;;;4863243;29;20589;-59
2022/08/17 04:37:48;;;;;;;37.30;33.70;;;19.30;99.90;;;;;;4862824;29;20234;-59
2022/08/17 04:43:06;;;;;;;35.80;32.50;;;19.30;99.90;;;;;;4868373;29;20244;-59
2022/08/17 04:45:40;;;;;;;35.47;32.17;;;19.20;99.90;;;;;;4881080;29;20724;-59
2022/08/17 04:48:24;;;;;;;36.13;32.53;;;19.20;99.90;;;;;;4880407;29;20705;-59
2022/08/17 04:51:05;;;;;;;36.73;32.97;;;19.20;99.90;;;;;;4881539;29;20251;-59
2022/08/17 04:53:33;;;;;;;34.13;31.07;;;19.20;99.90;;;;;;4881154;29;20317;-58
2022/08/17 04:56:02;;;;;;;32.50;29.60;;;19.20;99.90;;;;;;4881016;29;20233;-59
2022/08/17 04:58:30;;;;;;;34.33;30.97;;;19.20;99.90;;;;;;4879590;29;20925;-58
2022/08/17 05:01:00;;;;;;;32.17;29.23;;;19.20;99.90;;;;;;4882012;29;20242;-59
2022/08/17 05:03:28;;;;;;;33.00;30.00;;;19.30;99.90;;;;;;4898512;29;20689;-59
2022/08/17 05:05:56;;;;;;;31.33;28.53;;;19.30;99.90;;;;;;4900007;29;20315;-59
2022/08/17 05:08:24;;;;;;;30.80;28.00;;;19.30;99.90;;;;;;4900052;29;20332;-57
2022/08/17 05:10:52;;;;;;;29.93;27.23;;;19.30;99.90;;;;;;4892596;29;20253;-59
2022/08/17 05:13:23;;;;;;;34.13;31.03;;;19.40;99.90;;;;;;4881588;29;20315;-59
2022/08/17 05:15:55;;;;;;;33.23;30.20;;;19.40;99.90;;;;;;4880478;29;20769;-59
2022/08/17 05:18:24;;;;;;;35.70;32.30;;;19.40;99.90;;;;;;4880308;29;20255;-59
2022/08/17 05:20:53;;;;;;;35.67;32.33;;;19.40;99.90;;;;;;4880636;29;20240;-59
2022/08/17 05:23:24;;;;;;;34.77;31.47;;;19.40;99.90;;;;;;4880962;29;20234;-58
2022/08/17 05:25:55;;;;;;;31.07;28.37;;;19.40;99.90;;;;;;4873824;29;20237;-59
2022/08/17 05:28:25;;;;;;;32.63;29.73;;;19.40;99.90;;;;;;4880403;29;20646;-59
2022/08/17 05:30:56;;;;;;;34.80;31.50;;;19.40;99.90;;;;;;4880242;29;20300;-59
2022/08/17 05:33:28;;;;;;;35.23;31.83;;;19.50;99.90;;;;;;4878059;29;20232;-59
2022/08/17 05:35:58;;;;;;;35.50;32.10;;;19.50;99.90;;;;;;4889371;29;20236;-59
2022/08/17 05:38:28;;;;;;;33.20;30.20;;;19.50;99.90;;;;;;4882510;29;20238;-57
2022/08/17 05:40:58;;;;;;;35.37;32.10;;;19.50;99.90;;;;;;4879914;29;20252;-59
2022/08/17 05:43:28;;;;;;;32.77;29.67;;;19.60;99.90;;;;;;4879655;29;20231;-60
2022/08/17 05:46:02;;;;;;;36.23;32.80;;;19.70;99.90;;;;;;4880019;29;20240;-58
2022/08/17 05:48:36;;;;;;;32.87;29.87;;;19.70;99.90;;;;;;4880234;29;20244;-59
2022/08/17 05:51:36;;;;;;;36.27;32.77;;;19.70;99.90;;;;;;4879214;29;20285;-59
2022/08/17 05:54:15;;;;;;;37.27;33.77;;;19.80;99.90;;;;;;4876109;29;20251;-59
2022/08/17 05:56:59;;;;;;;33.93;30.93;;;19.80;99.90;;;;;;4878638;29;20238;-59
2022/08/17 05:59:35;;;;;;;32.37;29.47;;;19.90;99.90;;;;;;4879006;29;20638;-58
2022/08/17 06:02:14;;;;;;;31.20;28.50;;;20.10;99.90;;;;;;4874267;29;20252;-59
2022/08/17 06:05:02;;;;;;;27.87;25.27;;;20.30;99.90;;;;;;4871529;29;20251;-58
2022/08/17 06:07:36;;;;;;;32.70;29.60;;;20.50;99.90;;;;;;4860131;29;20237;-59
2022/08/17 06:10:12;;;;;;;31.77;28.73;;;20.60;99.90;;;;;;4865085;29;20224;-58
2022/08/17 06:12:49;;;;;;;32.60;29.60;;;20.70;99.90;;;;;;4867769;29;20253;-58
2022/08/17 06:15:27;;;;;;;29.80;27.07;;;20.80;99.90;;;;;;4869240;29;20237;-57
2022/08/17 06:17:58;;;;;;;33.63;30.53;;;20.90;99.90;;;;;;4865234;29;20257;-59
2022/08/17 06:20:34;;;;;;;29.00;26.37;;;20.90;99.90;;;;;;4864683;29;20632;-58
2022/08/17 06:23:05;;;;;;;28.30;25.70;;;21.10;99.90;;;;;;4864350;29;20594;-59
2022/08/17 06:25:37;;;;;;;32.33;29.23;;;21.20;99.90;;;;;;4862538;29;20242;-58
2022/08/17 06:28:11;;;;;;;33.93;30.73;;;21.40;99.90;;;;;;4865430;29;20239;-58
2022/08/17 06:30:47;;;;;;;31.67;28.43;;;21.60;99.90;;;;;;4856221;29;20251;-59
2022/08/17 06:33:32;;;;;;;29.20;26.43;;;21.70;99.90;;;;;;4864787;29;20248;-58
2022/08/17 06:36:12;;;;;;;32.47;29.53;;;21.80;99.90;;;;;;4867676;29;20248;-59
2022/08/17 06:38:49;;;;;;;32.47;29.37;;;21.90;99.90;;;;;;4865198;29;20238;-59
2022/08/17 06:41:25;;;;;;;26.23;23.80;;;22.00;99.90;;;;;;4863006;29;20246;-59
2022/08/17 06:44:09;;;;;;;31.43;28.53;;;22.10;99.90;;;;;;4850103;29;20302;-57
2022/08/17 06:46:40;;;;;;;32.63;29.33;;;22.30;99.90;;;;;;4873035;29;20241;-59
2022/08/17 06:49:18;;;;;;;32.57;29.30;;;22.60;99.90;;;;;;4867411;29;20796;-57
2022/08/17 06:51:52;;;;;;;35.33;32.07;;;22.80;99.90;;;;;;4859816;29;20352;-59
2022/08/17 06:54:27;;;;;;;32.83;29.83;;;23.00;99.90;;;;;;4864609;29;20243;-59
2022/08/17 06:57:00;;;;;;;33.73;30.77;;;23.20;99.90;;;;;;4865879;29;20242;-58
2022/08/17 06:59:33;;;;;;;31.90;28.87;;;23.40;99.90;;;;;;4865524;29;20240;-57
2022/08/17 07:02:37;;;;;;;28.93;26.00;;;23.60;99.90;;;;;;4864829;29;20238;-58
2022/08/17 07:05:23;;;;;;;34.00;30.90;;;23.80;99.90;;;;;;4854996;29;20238;-59
2022/08/17 07:08:02;;;;;;;34.03;30.50;;;23.90;99.90;;;;;;4862027;29;20238;-58
2022/08/17 07:10:41;;;;;;;33.97;30.47;;;24.00;99.90;;;;;;4867410;29;20326;-57
2022/08/17 07:13:33;;;;;;;32.03;29.03;;;24.00;99.90;;;;;;4849506;29;20244;-58
2022/08/17 07:16:11;;;;;;;27.33;24.80;;;24.10;99.90;;;;;;4861167;29;20240;-57
2022/08/17 07:18:39;;;;;;;33.57;30.47;;;24.00;99.90;;;;;;4868417;29;20241;-59
2022/08/17 07:21:17;;;;;;;28.13;25.30;;;24.10;99.90;;;;;;4865513;29;20237;-58
2022/08/17 07:24:07;;;;;;;34.03;30.83;;;24.20;99.90;;;;;;4860795;29;20233;-58
2022/08/17 07:26:37;;;;;;;32.40;29.33;;;24.30;99.90;;;;;;4871014;29;20242;-58
2022/08/17 07:29:05;;;;;;;31.83;28.50;;;24.50;99.90;;;;;;4861113;29;20933;-59
2022/08/17 07:31:34;;;;;;;32.93;29.83;;;24.50;99.90;;;;;;4864797;29;20269;-59
2022/08/17 07:34:06;;;;;;;31.13;28.03;;;24.60;99.90;;;;;;4868006;29;20231;-59
2022/08/17 07:36:34;;;;;;;29.37;26.47;;;24.60;99.90;;;;;;4859060;29;20257;-58
2022/08/17 07:39:04;;;;;;;35.13;31.63;;;24.60;99.90;;;;;;4869127;29;20245;-59
2022/08/17 07:41:39;;;;;;;29.83;26.90;;;24.70;99.90;;;;;;4853002;29;20228;-58
2022/08/17 07:44:26;;;;;;;29.53;26.80;;;24.80;99.90;;;;;;4862232;29;20231;-59
2022/08/17 07:49:44;;;;;;;30.27;27.27;;;25.10;99.90;;;;;;4870347;29;20247;-59
2022/08/17 07:52:28;;;;;;;28.47;25.73;;;25.50;99.90;;;;;;4868701;29;20237;-60
2022/08/17 07:55:30;;;;;;;25.27;22.87;;;25.60;99.90;;;;;;4864477;29;20263;-59
2022/08/17 07:57:59;;;;;;;24.30;22.10;;;25.90;99.90;;;;;;4862794;29;20767;-59
2022/08/17 08:00:28;;;;;;;28.30;25.33;;;25.90;99.90;;;;;;4855108;29;20310;-58
2022/08/17 08:03:22;;;;;;;23.13;21.03;;;26.00;99.90;;;;;;4849159;29;20364;-59
2022/08/17 08:05:56;;;;;;;25.20;22.93;;;26.20;99.90;;;;;;4853253;29;20240;-58
2022/08/17 08:08:43;;;;;;;26.37;23.93;;;26.30;99.90;;;;;;4867037;29;20236;-59
2022/08/17 08:11:15;;;;;;;23.73;21.40;;;26.50;99.90;;;;;;4861532;29;20237;-60
2022/08/17 08:13:44;;;;;;;21.70;19.70;;;26.60;99.90;;;;;;4858190;29;20245;-59
2022/08/17 08:16:24;;;;;;;23.47;20.83;;;26.80;99.90;;;;;;4851217;29;20235;-59
2022/08/17 08:18:55;;;;;;;25.50;22.97;;;27.10;99.90;;;;;;4868119;29;20287;-58
2022/08/17 08:21:35;;;;;;;25.90;23.23;;;27.00;99.90;;;;;;4871204;29;21417;-58
2022/08/17 08:24:20;;;;;;;20.67;18.47;;;27.00;99.90;;;;;;4873460;29;21233;-58
2022/08/17 08:26:55;;;;;;;24.73;22.07;;;27.20;99.90;;;;;;4871909;29;20247;-58
2022/08/17 08:29:31;;;;;;;20.63;18.63;;;27.40;99.90;;;;;;4868992;29;20836;-58
2022/08/17 08:32:06;;;;;;;19.93;18.03;;;27.70;99.90;;;;;;4865835;29;20299;-59
2022/08/17 08:34:44;;;;;;;21.40;19.13;;;28.00;99.90;;;;;;4871477;29;20596;-58
2022/08/17 08:37:38;;;;;;;20.87;17.70;;;28.10;99.90;;;;;;4872558;29;20242;-58
2022/08/17 08:40:28;;;;;;;18.20;16.07;;;28.30;99.90;;;;;;4870801;29;20797;-59
2022/08/17 08:43:11;;;;;;;17.13;15.43;;;28.30;99.90;;;;;;4866566;29;20657;-59
2022/08/17 08:45:48;;;;;;;16.60;14.90;;;28.40;99.90;;;;;;4880228;29;20259;-58
2022/08/17 08:48:30;;;;;;;14.43;13.10;;;28.70;99.90;;;;;;4873214;29;20235;-59
2022/08/17 08:51:26;;;;;;;11.87;10.23;;;29.10;99.90;;;;;;4873742;29;20725;-58
2022/08/17 08:54:03;;;;;;;13.63;12.43;;;29.60;99.90;;;;;;4865766;29;20237;-59
2022/08/17 08:56:37;;;;;;;13.43;12.17;;;29.60;99.90;;;;;;4863685;29;20807;-60
2022/08/17 08:59:19;;;;;;;11.27;10.10;;;29.70;99.90;;;;;;4871145;29;20233;-59
2022/08/17 09:01:58;;;;;;;10.93;9.93;;;30.20;99.90;;;;;;4867783;29;20862;-60
2022/08/17 09:04:47;;;;;;;11.43;10.30;;;30.50;99.90;;;;;;4867365;29;20237;-58
2022/08/17 09:07:44;;;;;;;14.67;11.60;;;30.70;99.90;;;;;;4866998;29;20230;-59
2022/08/17 09:10:20;;;;;;;10.20;9.33;;;30.80;99.90;;;;;;4849778;29;20316;-60
2022/08/17 09:12:58;;;;;;;9.77;8.83;;;31.00;99.90;;;;;;4868657;29;20251;-59
2022/08/17 09:15:42;;;;;;;9.53;8.70;;;31.10;99.90;;;;;;4870101;29;20231;-59
2022/08/17 09:18:16;;;;;;;10.03;9.13;;;30.80;99.90;;;;;;4864303;29;20552;-60
2022/08/17 09:21:10;;;;;;;8.63;7.73;;;31.00;99.90;;;;;;4865956;29;20234;-59
2022/08/17 09:23:43;;;;;;;8.70;7.97;;;31.10;99.90;;;;;;4864298;29;20233;-60
2022/08/17 09:26:21;;;;;;;9.70;8.80;;;31.30;99.90;;;;;;4856553;29;20234;-59
2022/08/17 09:28:52;;;;;;;10.10;7.23;;;31.60;99.90;;;;;;4868553;29;20601;-59
2022/08/17 09:31:30;;;;;;;9.03;8.23;;;31.60;99.90;;;;;;4868191;29;20684;-59
2022/08/17 09:34:05;;;;;;;8.57;7.57;;;31.50;99.90;;;;;;4867456;29;20230;-59
2022/08/17 09:36:40;;;;;;;9.50;8.50;;;31.50;99.90;;;;;;4881059;29;20353;-58
2022/08/17 09:39:13;;;;;;;7.67;6.80;;;31.40;99.90;;;;;;4871461;29;20248;-60
2022/08/17 09:41:47;;;;;;;8.43;7.10;;;31.40;99.90;;;;;;4870348;29;20238;-59
2022/08/17 09:44:26;;;;;;;8.10;7.40;;;31.60;99.90;;;;;;4870285;29;20271;-60
2022/08/17 09:47:04;;;;;;;7.90;7.10;;;31.70;99.90;;;;;;4860739;29;20235;-59
2022/08/17 09:49:38;;;;;;;11.10;7.63;;;31.70;99.90;;;;;;4869259;29;20240;-60
2022/08/17 09:52:13;;;;;;;10.03;7.10;;;31.90;99.90;;;;;;4865979;29;20243;-61
2022/08/17 09:54:46;;;;;;;9.43;6.97;;;32.00;99.90;;;;;;4868596;29;20242;-59
2022/08/17 09:57:23;;;;;;;9.03;7.43;;;32.00;99.90;;;;;;4870158;29;20231;-60
2022/08/17 10:00:15;;;;;;;6.63;6.00;;;31.60;99.90;;;;;;4876396;29;20226;-59
2022/08/17 10:03:16;;;;;;;7.47;6.87;;;31.50;99.90;;;;;;4869724;29;20390;-59
2022/08/17 10:05:51;;;;;;;7.73;6.97;;;31.30;99.90;;;;;;4867123;29;20381;-60
2022/08/17 10:08:32;;;;;;;10.03;6.40;;;31.10;99.90;;;;;;4867685;29;20743;-59
2022/08/17 10:11:18;;;;;;;8.77;6.93;;;31.10;99.90;;;;;;4868016;29;20241;-59
2022/08/17 10:13:55;;;;;;;7.53;6.50;;;31.20;99.90;;;;;;4867131;29;20302;-60
2022/08/17 10:16:34;;;;;;;8.17;6.33;;;31.50;99.90;;;;;;4869403;29;20580;-60
2022/08/17 10:19:13;;;;;;;9.30;6.90;;;31.80;99.90;;;;;;4859762;29;20245;-60
2022/08/17 10:27:54;;;;;;;8.13;7.33;;;32.50;99.90;;;;;;4849912;29;20241;-60
2022/08/17 10:30:26;;;;;;;10.30;7.10;;;32.50;99.90;;;;;;4850394;29;20705;-60
2022/08/17 10:32:57;;;;;;;14.33;7.53;;;32.40;99.90;;;;;;4852280;29;20273;-60
2022/08/17 10:35:34;;;;;;;9.17;8.13;;;32.30;99.90;;;;;;4847725;29;20246;-60
2022/08/17 10:38:38;;;;;;;8.43;7.20;;;32.30;99.90;;;;;;4848897;29;20240;-59
2022/08/17 10:41:19;;;;;;;8.53;7.73;;;32.40;99.90;;;;;;4855573;29;20708;-60
2022/08/17 10:43:59;;;;;;;7.87;7.17;;;32.20;99.90;;;;;;4854642;29;20590;-59
2022/08/17 10:47:09;;;;;;;8.20;7.40;;;32.30;99.90;;;;;;4855327;29;20241;-59
2022/08/17 10:49:46;;;;;;;8.47;7.30;;;32.60;99.90;;;;;;4856389;29;20672;-59
2022/08/17 10:52:48;;;;;;;10.40;7.47;;;32.50;99.90;;;;;;4858205;29;20240;-59
2022/08/17 10:55:19;;;;;;;7.50;6.80;;;32.30;99.90;;;;;;4851596;29;20248;-60
2022/08/17 10:57:49;;;;;;;7.90;7.10;;;32.50;99.90;;;;;;4854306;29;20336;-60
2022/08/17 11:00:56;;;;;;;9.20;7.17;;;32.60;99.90;;;;;;4856090;29;20243;-60
2022/08/17 11:03:26;;;;;;;8.13;6.97;;;32.60;99.90;;;;;;4853748;29;20713;-60
2022/08/17 11:06:05;;;;;;;7.70;6.67;;;32.40;99.90;;;;;;4848452;29;20241;-60
2022/08/17 11:08:58;;;;;;;6.83;6.23;;;32.20;99.90;;;;;;4848676;29;20689;-60
2022/08/17 11:12:01;;;;;;;7.77;6.13;;;31.90;99.90;;;;;;4842208;29;20259;-59
2022/08/17 11:14:42;;;;;;;6.60;6.10;;;31.70;99.90;;;;;;4850708;29;20704;-60
2022/08/17 11:17:44;;;;;;;7.93;5.80;;;31.80;99.90;;;;;;4843327;29;20247;-59
2022/08/17 11:20:37;;;;;;;8.03;6.10;;;31.80;99.90;;;;;;4850388;29;20247;-59
2022/08/17 11:23:22;;;;;;;6.37;5.70;;;31.90;99.90;;;;;;4851830;29;20644;-60
2022/08/17 11:25:53;;;;;;;6.43;5.80;;;31.80;99.90;;;;;;4849735;29;20241;-59
2022/08/17 11:28:26;;;;;;;7.13;5.53;;;31.50;99.90;;;;;;4851403;29;20598;-59
2022/08/17 11:30:57;;;;;;;6.83;5.57;;;31.50;99.90;;;;;;4851482;29;20246;-60
2022/08/17 11:33:52;;;;;;;5.90;5.40;;;31.40;99.90;;;;;;4852176;29;20240;-60
2022/08/17 11:36:33;;;;;;;6.20;5.60;;;31.30;99.90;;;;;;4847838;29;20250;-59
2022/08/17 11:39:06;;;;;;;5.53;5.13;;;31.20;99.90;;;;;;4852831;29;20245;-59
2022/08/17 11:41:47;;;;;;;5.80;5.30;;;31.00;99.90;;;;;;4851278;29;20259;-59
2022/08/17 11:44:36;;;;;;;5.93;5.33;;;31.00;99.90;;;;;;4851380;29;20707;-60
2022/08/17 11:53:50;;;;;;;5.93;5.10;;;31.00;99.90;;;;;;4853270;29;20880;-59
2022/08/17 11:56:45;;;;;;;5.90;5.37;;;31.10;99.90;;;;;;4851839;29;20242;-60
2022/08/17 11:59:50;;;;;;;8.23;5.40;;;31.10;99.90;;;;;;4851510;29;20240;-59
2022/08/17 12:02:37;;;;;;;6.33;5.60;;;31.00;99.90;;;;;;4851342;29;20247;-60
2022/08/17 12:05:33;;;;;;;5.83;5.20;;;31.10;99.90;;;;;;4855139;29;20238;-60
2022/08/17 12:08:16;;;;;;;5.57;4.90;;;31.00;99.90;;;;;;4855357;29;20294;-60
2022/08/17 12:10:58;;;;;;;7.27;5.40;;;31.10;99.90;;;;;;4854312;29;20686;-59
2022/08/17 12:13:27;;;;;;;5.93;5.27;;;31.10;99.90;;;;;;4859020;29;20244;-58
2022/08/17 12:16:08;;;;;;;7.33;5.57;;;31.20;99.90;;;;;;4860752;29;20247;-60
2022/08/17 12:18:40;;;;;;;5.90;5.30;;;31.10;99.90;;;;;;4855025;29;20323;-58
2022/08/17 12:21:31;;;;;;;7.47;5.70;;;30.80;99.90;;;;;;4854190;29;20235;-60
2022/08/17 12:24:06;;;;;;;9.03;5.47;;;30.80;99.90;;;;;;4856635;29;20583;-59
2022/08/17 12:26:36;;;;;;;6.63;5.40;;;30.80;99.90;;;;;;4852399;29;20245;-60
2022/08/17 12:29:06;;;;;;;6.13;5.53;;;30.60;99.90;;;;;;4853699;29;20243;-59
2022/08/17 12:31:47;;;;;;;6.00;5.40;;;30.70;99.90;;;;;;4853409;29;20597;-60
2022/08/17 12:34:19;;;;;;;6.10;5.50;;;30.90;99.90;;;;;;4853653;29;20322;-60
2022/08/17 12:36:50;;;;;;;6.43;5.17;;;30.70;99.90;;;;;;4851863;29;20714;-59
2022/08/17 12:39:21;;;;;;;6.03;5.17;;;30.40;99.90;;;;;;4853627;29;20334;-60
2022/08/17 12:41:55;;;;;;;5.60;4.90;;;30.50;99.90;;;;;;4853253;29;20719;-60
2022/08/17 12:44:32;;;;;;;6.17;5.57;;;30.50;99.90;;;;;;4851320;29;20723;-59
2022/08/17 12:47:03;;;;;;;7.23;5.27;;;30.50;99.90;;;;;;4850029;29;20226;-59
2022/08/17 12:49:35;;;;;;;6.47;5.10;;;30.60;99.90;;;;;;4851810;29;20227;-59
2022/08/17 12:52:12;;;;;;;5.50;4.90;;;30.60;99.90;;;;;;4851307;29;20236;-59
2022/08/17 12:54:58;;;;;;;6.20;5.60;;;30.60;99.90;;;;;;4852326;29;20303;-59
2022/08/17 12:57:32;;;;;;;6.17;5.17;;;30.60;99.90;;;;;;4850961;29;20246;-59
2022/08/17 13:00:08;;;;;;;5.50;5.00;;;30.30;99.90;;;;;;4852201;29;20248;-60
2022/08/17 13:02:43;;;;;;;6.83;5.30;;;30.20;99.90;;;;;;4851513;29;20329;-58
2022/08/17 13:05:21;;;;;;;6.00;4.90;;;30.10;99.90;;;;;;4852028;29;20230;-59
2022/08/17 13:07:51;;;;;;;5.80;5.07;;;30.10;99.90;;;;;;4850029;29;20258;-60
2022/08/17 13:10:25;;;;;;;5.67;4.97;;;30.10;99.90;;;;;;4850883;29;20691;-60
2022/08/17 13:13:04;;;;;;;5.30;4.80;;;30.10;99.90;;;;;;4858358;29;20236;-59
2022/08/17 13:15:40;;;;;;;5.30;4.80;;;30.10;99.90;;;;;;4860464;29;20243;-59
2022/08/17 13:18:38;;;;;;;6.17;4.90;;;30.00;99.90;;;;;;4865599;29;20338;-59
2022/08/17 13:21:20;;;;;;;8.97;5.50;;;30.00;99.90;;;;;;4870591;29;20699;-59
2022/08/17 13:24:00;;;;;;;5.53;4.87;;;29.90;99.90;;;;;;4870906;29;20242;-59
2022/08/17 13:26:32;;;;;;;6.03;5.00;;;29.90;99.90;;;;;;4869777;29;20233;-60
2022/08/17 13:29:02;;;;;;;5.40;4.90;;;30.00;99.90;;;;;;4858492;29;20230;-60
2022/08/17 13:31:37;;;;;;;5.57;4.97;;;30.00;99.90;;;;;;4871076;29;20253;-59
2022/08/17 13:34:36;;;;;;;6.27;4.83;;;29.90;99.90;;;;;;4859729;29;20281;-60
2022/08/17 13:37:29;;;;;;;5.67;5.13;;;29.90;99.90;;;;;;4871137;29;20230;-58
2022/08/17 13:39:59;;;;;;;6.70;5.20;;;30.00;99.90;;;;;;4872105;29;20234;-59
2022/08/17 13:42:42;;;;;;;5.13;4.50;;;30.00;99.90;;;;;;4871079;29;20233;-59
2022/08/17 13:45:42;;;;;;;5.50;5.00;;;30.00;99.90;;;;;;4866347;29;20234;-59
2022/08/17 13:48:22;;;;;;;8.37;4.97;;;29.90;99.90;;;;;;4866801;29;20269;-58